createdAt,value
2018-04-26T00:01:30.625Z,82.78
2018-04-26T00:03:59.134Z,82.25
2018-04-26T00:06:27.427Z,82.10
2018-04-26T00:08:56.042Z,81.17
2018-04-26T00:11:24.353Z,81.46
2018-04-26T00:13:52.707Z,82.05
2018-04-26T00:16:21.045Z,83.82
2018-04-26T00:18:49.331Z,84.90
2018-04-26T00:21:18.271Z,84.94
2018-04-26T00:23:47.057Z,85.84
2018-04-26T00:26:15.360Z,87.01
2018-04-26T00:28:43.695Z,87.04
2018-04-26T00:31:12.019Z,86.43
2018-04-26T00:33:40.382Z,85.33
2018-04-26T00:36:08.728Z,85.37
2018-04-26T00:38:38.067Z,88.15
2018-04-26T00:41:06.388Z,87.27
2018-04-26T00:43:35.952Z,86.65
2018-04-26T00:46:04.235Z,87.15
2018-04-26T00:48:32.578Z,86.34
2018-04-26T00:51:00.887Z,86.02
2018-04-26T00:53:29.237Z,86.44
2018-04-26T00:55:58.431Z,87.26
2018-04-26T00:58:26.731Z,87.63
2018-04-26T01:00:55.040Z,87.05
2018-04-26T01:03:24.163Z,87.10
2018-04-26T01:05:52.507Z,84.59
2018-04-26T01:08:20.799Z,81.39
2018-04-26T01:10:49.152Z,81.32
2018-04-26T01:13:17.512Z,77.80
2018-04-26T01:15:46.065Z,78.25
2018-04-26T01:18:17.655Z,77.00
2018-04-26T01:20:45.743Z,78.30
2018-04-26T01:23:14.124Z,78.88
2018-04-26T01:25:42.423Z,79.00
2018-04-26T01:28:11.488Z,79.53
2018-04-26T01:30:39.826Z,81.13
2018-04-26T01:33:08.117Z,82.15
2018-04-26T01:35:36.808Z,83.32
2018-04-26T01:38:05.119Z,82.98
2018-04-26T01:40:33.549Z,81.86
2018-04-26T01:43:02.461Z,83.46
2018-04-26T01:45:30.752Z,83.93
2018-04-26T01:47:59.127Z,83.53
2018-04-26T01:50:27.419Z,83.18
2018-04-26T01:52:55.713Z,84.10
2018-04-26T01:55:24.034Z,84.64
2018-04-26T01:57:52.495Z,84.66
2018-04-26T02:00:20.800Z,85.30
2018-04-26T02:02:50.720Z,87.04
2018-04-26T02:05:19.031Z,86.73
2018-04-26T02:07:47.399Z,86.83
2018-04-26T02:10:15.715Z,86.90
2018-04-26T02:12:44.998Z,87.47
2018-04-26T02:15:13.521Z,88.24
2018-04-26T02:17:41.953Z,87.49
2018-04-26T02:20:10.343Z,88.27
2018-04-26T02:22:38.684Z,88.67
2018-04-26T02:25:07.584Z,88.97
2018-04-26T02:27:35.910Z,87.74
2018-04-26T02:30:04.203Z,87.35
2018-04-26T02:32:32.948Z,87.20
2018-04-26T02:35:01.745Z,87.12
2018-04-26T02:37:30.830Z,87.75
2018-04-26T02:39:59.817Z,87.88
2018-04-26T02:42:28.191Z,87.85
2018-04-26T02:44:56.910Z,87.42
2018-04-26T02:47:25.193Z,87.54
2018-04-26T02:49:53.476Z,87.59
2018-04-26T02:52:21.852Z,88.08
2018-04-26T02:54:50.241Z,88.60
2018-04-26T02:57:18.535Z,88.45
2018-04-26T02:59:46.868Z,87.86
2018-04-26T03:02:15.211Z,88.13
2018-04-26T03:04:43.504Z,88.34
2018-04-26T03:07:11.827Z,89.21
2018-04-26T03:09:40.194Z,89.34
2018-04-26T03:12:08.499Z,88.54
2018-04-26T03:14:36.832Z,88.37
2018-04-26T03:17:05.374Z,89.14
2018-04-26T03:19:33.691Z,89.23
2018-04-26T03:22:02.026Z,89.31
2018-04-26T03:24:30.114Z,89.12
2018-04-26T03:26:58.175Z,89.46
2018-04-26T03:29:27.059Z,89.66
2018-04-26T03:31:55.864Z,89.62
2018-04-26T03:34:24.188Z,89.22
2018-04-26T03:36:52.529Z,89.64
2018-04-26T03:39:21.300Z,90.11
2018-04-26T03:41:49.615Z,90.34
2018-04-26T03:44:18.683Z,90.26
2018-04-26T03:46:46.962Z,90.97
2018-04-26T03:49:15.586Z,91.38
2018-04-26T03:51:44.050Z,91.94
2018-04-26T03:54:12.355Z,91.96
2018-04-26T03:56:40.810Z,91.86
2018-04-26T03:59:09.094Z,91.83
2018-04-26T04:01:55.800Z,91.54
2018-04-26T04:04:41.538Z,91.49
2018-04-26T04:07:09.879Z,91.54
2018-04-26T04:09:38.187Z,91.69
2018-04-26T04:12:07.386Z,91.93
2018-04-26T04:14:35.728Z,92.25
2018-04-26T04:17:04.019Z,92.61
2018-04-26T04:19:33.395Z,92.42
2018-04-26T04:22:02.147Z,91.67
2018-04-26T04:24:30.430Z,91.87
2018-04-26T04:26:58.876Z,90.83
2018-04-26T04:29:28.028Z,91.03
2018-04-26T04:31:56.874Z,90.74
2018-04-26T04:34:25.239Z,90.67
2018-04-26T04:36:54.570Z,90.34
2018-04-26T04:39:23.183Z,89.99
2018-04-26T04:41:53.951Z,90.54
2018-04-26T04:44:23.984Z,90.43
2018-04-26T04:46:53.286Z,89.97
2018-04-26T04:49:21.781Z,90.27
2018-04-26T04:51:50.232Z,89.75
2018-04-26T04:54:18.558Z,89.20
2018-04-26T04:56:46.878Z,89.47
2018-04-26T04:59:14.955Z,89.24
2018-04-26T05:01:43.395Z,89.51
2018-04-26T05:04:12.267Z,88.99
2018-04-26T05:06:40.766Z,88.68
2018-04-26T05:09:09.617Z,88.25
2018-04-26T05:11:37.958Z,88.22
2018-04-26T05:14:06.311Z,87.94
2018-04-26T05:16:35.313Z,87.85
2018-04-26T05:19:04.652Z,87.27
2018-04-26T05:21:34.998Z,86.94
2018-04-26T05:24:05.084Z,87.50
2018-04-26T05:26:33.419Z,88.08
2018-04-26T05:29:01.767Z,89.14
2018-04-26T05:31:30.114Z,89.51
2018-04-26T05:33:58.416Z,88.18
2018-04-26T05:36:27.340Z,85.46
2018-04-26T05:38:55.009Z,84.12
2018-04-26T05:41:24.296Z,79.27
2018-04-26T05:43:52.748Z,77.95
2018-04-26T05:46:21.501Z,77.02
2018-04-26T05:48:49.829Z,73.70
2018-04-26T05:51:18.343Z,70.79
2018-04-26T05:53:47.893Z,66.98
2018-04-26T05:56:16.219Z,66.23
2018-04-26T05:58:45.015Z,64.51
2018-04-26T06:01:14.095Z,62.31
2018-04-26T06:03:42.456Z,61.83
2018-04-26T06:06:11.512Z,59.88
2018-04-26T06:08:40.739Z,63.15
2018-04-26T06:11:08.462Z,66.89
2018-04-26T06:13:36.820Z,65.53
2018-04-26T06:16:06.420Z,62.56
2018-04-26T06:18:35.103Z,57.70
2018-04-26T06:21:03.591Z,55.36
2018-04-26T06:23:32.020Z,56.78
2018-04-26T06:26:00.830Z,62.77
2018-04-26T06:28:30.227Z,63.06
2018-04-26T06:30:58.575Z,62.78
2018-04-26T06:33:26.806Z,66.73
2018-04-26T06:35:55.150Z,67.79
2018-04-26T06:38:23.748Z,70.13
2018-04-26T06:40:52.095Z,65.44
2018-04-26T06:43:20.942Z,61.34
2018-04-26T06:45:49.228Z,58.20
2018-04-26T06:48:17.539Z,55.73
2018-04-26T06:50:46.641Z,52.62
2018-04-26T06:53:15.898Z,52.04
2018-04-26T06:55:44.677Z,58.17
2018-04-26T06:58:13.616Z,55.82
2018-04-26T07:00:41.988Z,60.62
2018-04-26T07:03:10.875Z,63.06
2018-04-26T07:05:39.400Z,60.31
2018-04-26T07:08:08.351Z,60.88
2018-04-26T07:10:37.936Z,60.85
2018-04-26T07:13:06.769Z,62.03
2018-04-26T07:15:35.099Z,60.68
2018-04-26T07:18:03.436Z,61.44
2018-04-26T07:20:33.119Z,61.51
2018-04-26T07:23:02.175Z,61.61
2018-04-26T07:25:30.662Z,61.68
2018-04-26T07:27:59.485Z,60.65
2018-04-26T07:30:28.254Z,61.59
2018-04-26T07:32:56.635Z,61.67
2018-04-26T07:35:24.956Z,61.25
2018-04-26T07:37:53.241Z,62.13
2018-04-26T07:40:21.539Z,62.50
2018-04-26T07:42:49.899Z,62.32
2018-04-26T07:45:18.211Z,62.03
2018-04-26T07:47:46.587Z,60.94
2018-04-26T07:50:14.928Z,60.63
2018-04-26T07:52:43.219Z,61.80
2018-04-26T07:55:11.515Z,61.79
2018-04-26T07:57:39.864Z,62.46
2018-04-26T08:00:08.147Z,61.29
2018-04-26T08:02:37.163Z,61.66
2018-04-26T08:05:05.575Z,60.65
2018-04-26T08:07:33.870Z,60.99
2018-04-26T08:10:02.988Z,60.29
2018-04-26T08:12:31.279Z,61.11
2018-04-26T08:15:00.463Z,59.82
2018-04-26T08:17:28.784Z,61.04
2018-04-26T08:19:57.260Z,59.91
2018-04-26T08:22:25.523Z,60.44
2018-04-26T08:24:54.109Z,62.45
2018-04-26T08:27:22.367Z,61.33
2018-04-26T08:29:51.919Z,62.89
2018-04-26T08:32:20.266Z,60.51
2018-04-26T08:34:48.542Z,60.50
2018-04-26T08:37:16.882Z,60.79
2018-04-26T08:39:45.922Z,61.41
2018-04-26T08:42:14.199Z,61.73
2018-04-26T08:44:42.540Z,61.83
2018-04-26T08:47:11.375Z,59.73
2018-04-26T08:49:41.227Z,60.20
2018-04-26T08:52:09.819Z,59.32
2018-04-26T08:54:38.395Z,57.85
2018-04-26T08:57:07.380Z,56.82
2018-04-26T08:59:36.259Z,56.53
2018-04-26T09:02:04.542Z,54.73
2018-04-26T09:04:32.830Z,54.22
2018-04-26T09:07:01.857Z,55.26
2018-04-26T09:09:30.207Z,54.33
2018-04-26T09:11:58.496Z,53.34
2018-04-26T09:14:26.835Z,56.22
2018-04-26T09:16:55.268Z,51.57
2018-04-26T09:19:23.552Z,50.77
2018-04-26T09:21:51.861Z,52.02
2018-04-26T09:24:24.176Z,53.38
2018-04-26T09:26:52.503Z,52.82
2018-04-26T09:29:20.891Z,54.66
2018-04-26T09:31:49.175Z,53.47
2018-04-26T09:34:17.703Z,47.37
2018-04-26T09:36:46.018Z,47.30
2018-04-26T09:39:14.294Z,46.21
2018-04-26T09:41:42.702Z,42.85
2018-04-26T09:44:11.323Z,47.49
2018-04-26T09:46:39.647Z,50.69
2018-04-26T09:49:07.927Z,51.16
2018-04-26T09:51:36.242Z,53.53
2018-04-26T09:54:05.803Z,55.75
2018-04-26T09:56:34.091Z,55.94
2018-04-26T09:59:02.637Z,50.07
2018-04-26T10:01:36.579Z,43.35
2018-04-26T10:04:10.437Z,38.02
2018-04-26T10:06:44.396Z,37.91
2018-04-26T10:09:12.714Z,37.36
2018-04-26T10:11:41.005Z,35.84
2018-04-26T10:14:09.390Z,32.16
2018-04-26T10:16:38.301Z,37.29
2018-04-26T10:19:06.632Z,38.03
2018-04-26T10:21:35.706Z,36.30
2018-04-26T10:24:04.143Z,34.43
2018-04-26T10:26:32.518Z,30.95
2018-04-26T10:29:01.211Z,30.89
2018-04-26T10:31:29.699Z,32.60
2018-04-26T10:33:58.035Z,27.62
2018-04-26T10:36:26.863Z,31.95
2018-04-26T10:38:55.301Z,29.08
2018-04-26T10:41:23.580Z,32.71
2018-04-26T10:43:51.866Z,30.36
2018-04-26T10:46:20.172Z,29.84
2018-04-26T10:48:48.463Z,28.72
2018-04-26T10:51:16.799Z,27.02
2018-04-26T10:53:45.079Z,27.03
2018-04-26T10:56:13.366Z,27.08
2018-04-26T10:58:41.699Z,26.25
2018-04-26T11:01:10.611Z,27.01
2018-04-26T11:03:38.906Z,25.97
2018-04-26T11:06:07.221Z,32.66
2018-04-26T11:08:35.499Z,31.42
2018-04-26T11:11:03.788Z,26.73
2018-04-26T11:13:32.112Z,23.17
2018-04-26T11:16:00.390Z,25.09
2018-04-26T11:18:28.694Z,26.61
2018-04-26T11:20:57.022Z,24.28
2018-04-26T11:23:25.307Z,23.39
2018-04-26T11:25:53.628Z,24.84
2018-04-26T11:28:22.241Z,24.07
2018-04-26T11:30:51.408Z,22.67
2018-04-26T11:33:19.704Z,20.00
2018-04-26T11:35:48.347Z,22.45
2018-04-26T11:38:16.682Z,24.06
2018-04-26T11:40:44.963Z,26.17
2018-04-26T11:43:14.262Z,27.47
2018-04-26T11:45:42.946Z,28.38
2018-04-26T11:48:15.924Z,30.39
2018-04-26T11:50:44.270Z,28.13
2018-04-26T11:53:12.580Z,29.98
2018-04-26T11:55:40.868Z,28.01
2018-04-26T11:58:09.195Z,24.61
2018-04-26T12:00:37.547Z,23.17
2018-04-26T12:03:06.607Z,23.40
2018-04-26T12:05:35.511Z,23.07
2018-04-26T12:08:03.795Z,23.29
2018-04-26T12:10:32.847Z,24.91
2018-04-26T12:13:01.240Z,23.58
2018-04-26T12:15:29.535Z,22.06
2018-04-26T12:17:57.827Z,26.85
2018-04-26T12:20:26.344Z,21.73
2018-04-26T12:22:54.624Z,25.48
2018-04-26T12:25:23.531Z,30.99
2018-04-26T12:27:51.870Z,31.48
2018-04-26T12:30:20.743Z,31.25
2018-04-26T12:32:49.026Z,28.74
2018-04-26T12:35:18.290Z,26.44
2018-04-26T12:37:46.667Z,28.02
2018-04-26T12:40:15.556Z,29.04
2018-04-26T12:42:44.663Z,25.93
2018-04-26T12:45:13.228Z,27.39
2018-04-26T12:47:41.508Z,30.29
2018-04-26T12:50:10.819Z,30.87
2018-04-26T12:52:39.103Z,26.08
2018-04-26T12:55:07.451Z,23.36
2018-04-26T12:57:35.848Z,26.41
2018-04-26T13:00:04.216Z,28.52
2018-04-26T13:02:32.911Z,30.81
2018-04-26T13:05:02.183Z,29.40
2018-04-26T13:07:30.468Z,30.39
2018-04-26T13:09:59.117Z,30.64
2018-04-26T13:12:28.175Z,31.33
2018-04-26T13:14:57.875Z,29.21
2018-04-26T13:17:26.223Z,25.55
2018-04-26T13:19:55.234Z,22.79
2018-04-26T13:22:23.551Z,26.58
2018-04-26T13:24:51.975Z,28.55
2018-04-26T13:27:20.831Z,26.94
2018-04-26T13:29:49.721Z,26.73
2018-04-26T13:32:18.122Z,28.92
2018-04-26T13:34:47.611Z,24.53
2018-04-26T13:37:16.170Z,29.79
2018-04-26T13:39:44.733Z,26.33
2018-04-26T13:42:13.228Z,24.72
2018-04-26T13:44:42.004Z,26.53
2018-04-26T13:47:10.315Z,28.27
2018-04-26T13:49:38.598Z,28.32
2018-04-26T13:52:07.032Z,30.68
2018-04-26T13:54:35.340Z,29.67
2018-04-26T13:57:03.626Z,25.35
2018-04-26T13:59:32.050Z,27.11
2018-04-26T14:02:00.335Z,28.34
2018-04-26T14:04:28.829Z,29.88
2018-04-26T14:06:57.224Z,30.06
2018-04-26T14:09:25.542Z,26.33
2018-04-26T14:11:53.832Z,26.52
2018-04-26T14:14:22.163Z,26.36
2018-04-26T14:16:50.443Z,24.61
2018-04-26T14:19:18.725Z,24.50
2018-04-26T14:21:47.049Z,27.58
2018-04-26T14:24:18.805Z,30.29
2018-04-26T14:26:50.571Z,26.15
2018-04-26T14:29:18.919Z,22.83
2018-04-26T14:31:48.027Z,23.16
2018-04-26T14:34:17.896Z,25.58
2018-04-26T14:36:46.188Z,24.17
2018-04-26T14:39:14.518Z,22.62
2018-04-26T14:41:42.803Z,25.49
2018-04-26T14:44:11.079Z,27.12
2018-04-26T14:46:39.395Z,27.94
2018-04-26T14:49:07.686Z,27.17
2018-04-26T14:51:36.295Z,29.50
2018-04-26T14:54:04.622Z,30.56
2018-04-26T14:56:32.909Z,32.82
2018-04-26T14:59:01.556Z,29.42
2018-04-26T15:01:30.603Z,29.88
2018-04-26T15:03:59.252Z,30.13
2018-04-26T15:06:28.410Z,30.12
2018-04-26T15:08:57.467Z,29.12
2018-04-26T15:11:25.752Z,26.81
2018-04-26T15:13:54.083Z,27.01
2018-04-26T15:16:22.373Z,25.12
2018-04-26T15:18:51.383Z,27.08
2018-04-26T15:21:19.716Z,29.46
2018-04-26T15:23:48.727Z,30.20
2018-04-26T15:26:17.947Z,30.98
2018-04-26T15:28:46.978Z,30.61
2018-04-26T15:31:16.071Z,30.95
2018-04-26T15:33:45.373Z,32.55
2018-04-26T15:36:14.164Z,32.66
2018-04-26T15:38:42.543Z,31.04
2018-04-26T15:41:11.455Z,31.72
2018-04-26T15:43:39.787Z,31.04
2018-04-26T15:46:08.067Z,31.78
2018-04-26T15:48:36.497Z,32.99
2018-04-26T15:51:04.812Z,31.13
2018-04-26T15:53:51.840Z,29.18
2018-04-26T15:56:37.790Z,28.87
2018-04-26T15:59:24.486Z,29.23
2018-04-26T16:16:25.819Z,34.75
2018-04-26T16:32:51.311Z,31.09
2018-04-26T16:35:37.863Z,31.06
2018-04-26T16:38:23.643Z,33.21
2018-04-26T16:40:51.927Z,33.11
2018-04-26T16:43:20.831Z,33.35
2018-04-26T16:45:49.848Z,33.45
2018-04-26T16:48:18.294Z,33.22
2018-04-26T16:50:46.581Z,33.44
2018-04-26T16:53:14.864Z,33.24
2018-04-26T16:55:43.259Z,34.72
2018-04-26T16:58:11.553Z,35.07
2018-04-26T17:00:40.431Z,33.91
2018-04-26T17:03:09.209Z,33.77
2018-04-26T17:05:37.655Z,33.27
2018-04-26T17:08:05.947Z,35.17
2018-04-26T17:10:34.232Z,37.83
2018-04-26T17:13:02.555Z,36.89
2018-04-26T17:15:30.842Z,36.27
2018-04-26T17:17:59.138Z,37.20
2018-04-26T17:20:29.776Z,36.49
2018-04-26T17:22:59.035Z,36.85
2018-04-26T17:25:27.959Z,37.81
2018-04-26T17:27:57.260Z,37.77
2018-04-26T17:30:25.535Z,37.12
2018-04-26T17:32:54.244Z,37.31
2018-04-26T17:35:23.557Z,37.89
2018-04-26T17:37:51.840Z,38.22
2018-04-26T17:40:20.119Z,38.48
2018-04-26T17:42:48.427Z,38.30
2018-04-26T17:45:16.711Z,39.45
2018-04-26T17:47:45.075Z,39.17
2018-04-26T17:50:13.371Z,39.12
2018-04-26T17:52:41.717Z,40.85
2018-04-26T17:55:09.979Z,39.59
2018-04-26T17:57:38.255Z,39.33
2018-04-26T18:00:07.115Z,40.21
2018-04-26T18:02:35.456Z,40.60
2018-04-26T18:05:03.762Z,40.51
2018-04-26T18:07:32.091Z,41.10
2018-04-26T18:10:00.376Z,41.57
2018-04-26T18:12:28.695Z,41.15
2018-04-26T18:14:57.213Z,41.52
2018-04-26T18:17:25.539Z,41.26
2018-04-26T18:20:01.040Z,41.41
2018-04-26T18:22:22.315Z,42.47
2018-04-26T18:24:50.932Z,42.09
2018-04-26T18:27:19.838Z,42.41
2018-04-26T18:29:48.340Z,43.16
2018-04-26T18:32:16.791Z,42.44
2018-04-26T18:34:45.094Z,42.97
2018-04-26T18:37:13.669Z,43.38
2018-04-26T18:39:41.956Z,44.21
2018-04-26T18:42:10.308Z,44.77
2018-04-26T18:44:38.643Z,44.51
2018-04-26T18:47:06.936Z,44.62
2018-04-26T18:49:35.245Z,45.40
2018-04-26T18:52:04.230Z,45.12
2018-04-26T18:54:32.575Z,45.07
2018-04-26T18:57:00.892Z,45.00
2018-04-26T18:59:29.224Z,45.27
2018-04-26T19:01:58.029Z,46.21
2018-04-26T19:04:26.348Z,46.11
2018-04-26T19:06:54.659Z,46.91
2018-04-26T19:09:23.030Z,48.87
2018-04-26T19:11:51.329Z,47.25
2018-04-26T19:14:19.619Z,47.49
2018-04-26T19:16:47.967Z,47.15
2018-04-26T19:19:16.299Z,48.62
2018-04-26T19:21:44.635Z,48.43
2018-04-26T19:24:13.891Z,47.73
2018-04-26T19:26:42.309Z,48.40
2018-04-26T19:29:10.607Z,47.93
2018-04-26T19:31:38.980Z,46.48
2018-04-26T19:34:07.397Z,47.01
2018-04-26T19:36:35.690Z,49.50
2018-04-26T19:39:04.691Z,47.98
2018-04-26T19:41:33.099Z,50.38
2018-04-26T19:44:02.147Z,49.79
2018-04-26T19:46:30.427Z,46.20
2018-04-26T19:48:59.531Z,46.95
2018-04-26T19:51:28.638Z,49.07
2018-04-26T19:53:56.932Z,45.76
2018-04-26T19:56:25.232Z,45.20
2018-04-26T19:58:54.986Z,44.78
2018-04-26T20:01:23.289Z,45.15
2018-04-26T20:03:52.346Z,43.71
2018-04-26T20:06:20.708Z,47.15
2018-04-26T20:08:49.062Z,44.21
2018-04-26T20:11:17.327Z,43.96
2018-04-26T20:13:45.667Z,46.47
2018-04-26T20:16:13.955Z,46.76
2018-04-26T20:18:42.691Z,48.11
2018-04-26T20:21:11.013Z,51.35
2018-04-26T20:23:39.307Z,51.96
2018-04-26T20:26:07.935Z,51.53
2018-04-26T20:28:39.312Z,53.11
2018-04-26T20:31:07.859Z,52.88
2018-04-26T20:33:36.878Z,54.47
2018-04-26T20:36:05.986Z,53.28
2018-04-26T20:38:34.219Z,53.67
2018-04-26T20:41:02.592Z,55.13
2018-04-26T20:43:31.518Z,54.82
2018-04-26T20:45:59.851Z,55.89
2018-04-26T20:48:41.356Z,54.87
2018-04-26T20:51:10.324Z,55.25
2018-04-26T20:53:39.098Z,55.77
2018-04-26T20:56:07.799Z,58.77
2018-04-26T20:58:36.089Z,58.71
2018-04-26T21:01:05.047Z,59.78
2018-04-26T21:03:33.450Z,59.82
2018-04-26T21:06:01.767Z,60.71
2018-04-26T21:08:37.055Z,58.20
2018-04-26T21:11:05.335Z,58.58
2018-04-26T21:13:33.894Z,60.97
2018-04-26T21:16:02.182Z,62.00
2018-04-26T21:18:30.921Z,61.94
2018-04-26T21:21:00.027Z,61.99
2018-04-26T21:23:28.847Z,64.10
2018-04-26T21:25:57.190Z,63.67
2018-04-26T21:28:25.967Z,63.76
2018-04-26T21:30:54.239Z,64.62
2018-04-26T21:33:23.331Z,65.62
2018-04-26T21:35:54.654Z,66.11
2018-04-26T21:38:23.014Z,66.79
2018-04-26T21:40:51.854Z,67.72
2018-04-26T21:43:20.164Z,68.24
2018-04-26T21:45:48.463Z,68.20
2018-04-26T21:48:16.776Z,69.62
2018-04-26T21:50:50.412Z,70.09
2018-04-26T21:53:24.228Z,68.45
2018-04-26T21:55:57.951Z,69.38
2018-04-26T21:58:31.863Z,70.15
2018-04-26T22:01:05.612Z,70.21
2018-04-26T22:03:39.405Z,70.47
2018-04-26T22:06:08.363Z,71.38
2018-04-26T22:08:36.651Z,71.62
2018-04-26T22:11:04.932Z,71.46
2018-04-26T22:13:33.243Z,70.99
2018-04-26T22:16:01.523Z,71.47
2018-04-26T22:18:29.923Z,71.32
2018-04-26T22:20:58.251Z,72.05
2018-04-26T22:23:26.557Z,72.63
2018-04-26T22:25:55.248Z,73.58
2018-04-26T22:28:23.571Z,74.05
2018-04-26T22:30:52.771Z,73.75
2018-04-26T22:33:21.271Z,74.49
2018-04-26T22:35:49.551Z,76.36
2018-04-26T22:38:17.855Z,77.97
2018-04-26T22:40:46.152Z,77.76
2018-04-26T22:43:14.432Z,77.58
2018-04-26T22:45:42.727Z,76.12
2018-04-26T22:48:11.039Z,76.07
2018-04-26T22:50:39.318Z,78.76
2018-04-26T22:53:07.591Z,79.72
2018-04-26T22:55:35.923Z,79.66
2018-04-26T22:58:04.210Z,82.01
2018-04-26T23:00:32.511Z,82.97
2018-04-26T23:03:00.816Z,81.34
2018-04-26T23:05:29.859Z,80.14
2018-04-26T23:07:58.138Z,81.29
2018-04-26T23:10:26.505Z,82.07
2018-04-26T23:12:54.791Z,80.55
2018-04-26T23:15:23.619Z,82.04
2018-04-26T23:17:52.574Z,83.86
2018-04-26T23:20:20.899Z,84.96
2018-04-26T23:22:49.215Z,83.08
2018-04-26T23:25:17.608Z,83.09
2018-04-26T23:27:46.566Z,83.40
2018-04-26T23:30:14.891Z,82.74
2018-04-26T23:32:43.168Z,84.88
2018-04-26T23:35:11.438Z,85.13
2018-04-26T23:37:39.746Z,83.89
2018-04-26T23:40:08.301Z,84.86
2018-04-26T23:42:36.595Z,85.28
2018-04-26T23:45:04.898Z,85.88
2018-04-26T23:47:33.186Z,84.88
2018-04-26T23:50:01.916Z,86.70
2018-04-26T23:52:30.227Z,85.45
2018-04-26T23:54:58.811Z,85.04
2018-04-26T23:57:27.091Z,84.77
2018-04-26T23:59:55.439Z,84.29
